Terminal Aerodrome Forecast
Issued by NWS Binghamton, NY

Home | Current Version | Previous Version | Text Only | Print | Product List | Glossary On
Versions: 1 2 3 4 5 6 7 8 9 10 11 12 13 14 15 16 17 18 19 20 21 22 23 24 25 26 27 28 29 30 31 32 33 34 35 36 37 38
000
FTUS41 KBGM 031310 AAS
TAFAVP
TAF AMD
KAVP 031310Z 0313/0412 23012KT P6SM SCT100 OVC200
     FM031430 25009KT 6SM -SHRA BKN040 OVC100
      TEMPO 0316/0318 27020G35KT 3SM +TSRA OVC025CB
     FM032000 28009KT P6SM BKN050
     FM040200 VRB04KT P6SM BKN050=

USA.gov is the U.S. government's official web portal to all federal, state and local government web resources and services.